Time;durP1;ratioP1;P1;durP2;ratioP2;P2;SDS_P1;SDS_P2;PMS_P1;PMS_P2;Temp;Humidity;BMP_temperature;BMP_pressure;BME280_temperature;BME280_humidity;BME280_pressure;Samples;Min_cycle;Max_cycle;Signal;HPM_P1;HPM_P2
2024/02/22 00:01:36;;;;;;;1.55;1.10;;;11.70;98.00;;;;;;5011579;28;20230;-72
2024/02/22 00:04:03;;;;;;;2.10;1.23;;;11.60;98.20;;;;;;5011635;28;20384;-73
2024/02/22 00:06:30;;;;;;;1.60;1.35;;;11.60;98.30;;;;;;5011712;28;20285;-72
2024/02/22 00:08:57;;;;;;;1.58;1.48;;;11.60;98.60;;;;;;5011230;28;20590;-73
2024/02/22 00:11:25;;;;;;;2.85;1.40;;;11.60;99.00;;;;;;5011670;28;20206;-73
2024/02/22 00:13:51;;;;;;;1.90;1.67;;;11.50;99.10;;;;;;5011424;28;20230;-73
2024/02/22 00:16:18;;;;;;;1.85;1.73;;;11.40;99.10;;;;;;5011877;28;20214;-73
2024/02/22 00:18:45;;;;;;;2.85;1.30;;;11.30;99.20;;;;;;5010430;28;20631;-73
2024/02/22 00:21:13;;;;;;;1.65;1.20;;;11.30;99.40;;;;;;5011571;28;20218;-72
2024/02/22 00:23:40;;;;;;;1.60;1.48;;;11.30;99.60;;;;;;5010962;28;20641;-73
2024/02/22 00:26:07;;;;;;;1.23;1.05;;;11.20;99.70;;;;;;5011665;28;20216;-73
2024/02/22 00:28:35;;;;;;;1.85;1.30;;;11.20;99.90;;;;;;5010371;28;20217;-72
2024/02/22 00:31:01;;;;;;;3.00;1.67;;;11.20;99.90;;;;;;5011423;28;20205;-73
2024/02/22 00:33:28;;;;;;;1.55;1.15;;;11.10;99.90;;;;;;5010719;28;20240;-73
2024/02/22 00:35:55;;;;;;;1.52;1.38;;;11.10;99.90;;;;;;5011282;28;20554;-73
2024/02/22 00:38:22;;;;;;;1.33;1.10;;;11.10;99.90;;;;;;5010653;28;20596;-73
2024/02/22 00:40:49;;;;;;;1.20;1.10;;;11.00;99.90;;;;;;5008466;28;20226;-74
2024/02/22 00:43:16;;;;;;;1.80;1.10;;;11.00;99.90;;;;;;5010955;28;20244;-73
2024/02/22 00:45:44;;;;;;;1.40;1.30;;;11.00;99.90;;;;;;5010724;28;20202;-73
2024/02/22 00:48:10;;;;;;;1.33;1.23;;;10.90;99.90;;;;;;5010451;28;20205;-73
2024/02/22 00:50:37;;;;;;;2.20;1.67;;;10.90;99.90;;;;;;5010452;28;20255;-73
2024/02/22 00:53:04;;;;;;;1.52;1.42;;;10.90;99.90;;;;;;5010889;28;20228;-73
2024/02/22 00:55:31;;;;;;;1.73;1.30;;;10.80;99.90;;;;;;5011026;28;20228;-73
2024/02/22 00:57:57;;;;;;;1.80;1.27;;;10.80;99.90;;;;;;5010204;28;20208;-73
2024/02/22 01:00:24;;;;;;;1.52;1.33;;;10.80;99.90;;;;;;5011077;28;20636;-73
2024/02/22 01:02:52;;;;;;;1.83;1.60;;;10.70;99.90;;;;;;5010321;28;20209;-73
2024/02/22 01:05:19;;;;;;;1.55;1.40;;;10.60;99.90;;;;;;5009220;28;20211;-73
2024/02/22 01:07:46;;;;;;;3.00;1.40;;;10.60;99.90;;;;;;5006912;28;20565;-73
2024/02/22 01:10:12;;;;;;;1.58;1.48;;;10.50;99.90;;;;;;5010628;28;20232;-73
2024/02/22 01:12:39;;;;;;;1.20;1.10;;;10.50;99.90;;;;;;5009957;28;20686;-73
2024/02/22 01:15:07;;;;;;;3.85;1.52;;;10.40;99.90;;;;;;5007696;28;20209;-73
2024/02/22 01:17:34;;;;;;;2.05;1.40;;;10.30;99.90;;;;;;5010533;28;20208;-73
2024/02/22 01:20:04;;;;;;;2.00;1.90;;;10.30;99.90;;;;;;5010900;28;20512;-73
2024/02/22 01:22:31;;;;;;;2.80;1.90;;;10.20;99.90;;;;;;5010955;28;20254;-72
2024/02/22 01:24:58;;;;;;;2.22;1.80;;;10.20;99.90;;;;;;5011163;28;20229;-74
2024/02/22 01:27:26;;;;;;;1.70;1.60;;;10.10;99.90;;;;;;5010776;28;20205;-73
2024/02/22 01:29:52;;;;;;;2.55;2.20;;;10.10;99.90;;;;;;5010421;28;20207;-73
2024/02/22 01:32:19;;;;;;;1.48;1.33;;;10.00;99.90;;;;;;5011009;28;20212;-73
2024/02/22 01:34:46;;;;;;;3.17;1.80;;;10.00;99.90;;;;;;5010576;28;20237;-73
2024/02/22 01:37:14;;;;;;;2.22;1.58;;;9.90;99.90;;;;;;5011037;28;20207;-73
2024/02/22 01:39:41;;;;;;;1.30;1.17;;;9.90;99.90;;;;;;5009996;28;20211;-73
2024/02/22 01:42:08;;;;;;;2.15;1.50;;;9.90;99.90;;;;;;5010707;28;20215;-73
2024/02/22 01:44:34;;;;;;;1.80;1.40;;;9.80;99.90;;;;;;5010586;28;20250;-73
2024/02/22 01:47:01;;;;;;;1.55;1.30;;;9.80;99.90;;;;;;5010774;28;20209;-73
2024/02/22 01:49:28;;;;;;;2.10;1.55;;;9.90;99.90;;;;;;5010352;28;20205;-73
2024/02/22 01:52:00;;;;;;;1.95;1.48;;;9.80;99.90;;;;;;5011346;28;20212;-73
2024/02/22 01:54:28;;;;;;;1.90;1.40;;;9.80;99.90;;;;;;5010582;28;20226;-73
2024/02/22 01:56:55;;;;;;;1.48;1.38;;;9.80;99.90;;;;;;5014433;28;20199;-73
2024/02/22 01:59:23;;;;;;;1.45;1.20;;;9.80;99.90;;;;;;5014057;28;20214;-73
2024/02/22 02:01:51;;;;;;;1.40;1.30;;;9.70;99.90;;;;;;5014285;28;20314;-73
2024/02/22 02:04:19;;;;;;;1.88;1.50;;;9.70;99.90;;;;;;5014442;28;20266;-73
2024/02/22 02:06:46;;;;;;;2.30;1.77;;;9.70;99.90;;;;;;5014294;28;20217;-74
2024/02/22 02:09:13;;;;;;;1.33;1.23;;;9.70;99.90;;;;;;5013807;28;20210;-73
2024/02/22 02:11:42;;;;;;;1.38;1.27;;;9.60;99.90;;;;;;5014165;28;20209;-73
2024/02/22 02:14:09;;;;;;;3.13;1.65;;;9.60;99.90;;;;;;5014212;28;20278;-73
2024/02/22 02:16:35;;;;;;;1.25;1.15;;;9.60;99.90;;;;;;5014145;28;20201;-73
2024/02/22 02:19:07;;;;;;;3.67;1.67;;;9.60;99.90;;;;;;5013632;28;20566;-73
2024/02/22 02:21:40;;;;;;;1.40;1.30;;;9.50;99.90;;;;;;5014300;28;20244;-73
2024/02/22 02:24:20;;;;;;;1.67;1.33;;;9.50;99.90;;;;;;5014119;28;20223;-73
2024/02/22 02:26:48;;;;;;;1.40;1.30;;;9.50;99.90;;;;;;5013962;28;20207;-74
2024/02/22 02:29:15;;;;;;;1.50;1.20;;;9.40;99.90;;;;;;5013523;28;20227;-74
2024/02/22 02:31:42;;;;;;;1.50;1.40;;;9.40;99.90;;;;;;5014234;28;20831;-73
2024/02/22 02:34:09;;;;;;;1.40;1.30;;;9.40;99.90;;;;;;5014274;28;20270;-73
2024/02/22 02:36:35;;;;;;;1.90;1.15;;;9.40;99.90;;;;;;5014180;28;20239;-73
2024/02/22 02:39:02;;;;;;;1.75;1.20;;;9.40;99.90;;;;;;5010124;28;20243;-73
2024/02/22 02:41:29;;;;;;;1.20;1.05;;;9.40;99.90;;;;;;5013889;28;20218;-73
2024/02/22 02:43:57;;;;;;;1.63;1.40;;;9.30;99.90;;;;;;5013493;28;20680;-73
2024/02/22 02:46:24;;;;;;;1.80;1.70;;;9.30;99.90;;;;;;5013805;28;20199;-73
2024/02/22 02:48:51;;;;;;;1.63;0.90;;;9.20;99.90;;;;;;5012919;28;20218;-72
2024/02/22 02:51:17;;;;;;;1.30;1.10;;;9.20;99.90;;;;;;5013680;28;20208;-73
2024/02/22 02:53:44;;;;;;;1.70;1.25;;;9.20;99.90;;;;;;5013449;28;20726;-73
2024/02/22 02:56:11;;;;;;;1.27;1.10;;;9.20;99.90;;;;;;5013725;28;20210;-73
2024/02/22 02:58:38;;;;;;;1.58;1.48;;;9.20;99.90;;;;;;5013083;28;20199;-73
2024/02/22 03:01:07;;;;;;;1.40;1.00;;;9.10;99.90;;;;;;5013267;28;20223;-73
2024/02/22 03:03:34;;;;;;;1.20;1.10;;;9.10;99.90;;;;;;5012458;28;20433;-73
2024/02/22 03:06:01;;;;;;;1.85;1.48;;;9.10;99.90;;;;;;5013191;28;20289;-73
2024/02/22 03:08:28;;;;;;;1.20;1.10;;;9.00;99.90;;;;;;5013157;28;20210;-73
2024/02/22 03:10:54;;;;;;;2.00;1.27;;;9.00;99.90;;;;;;5013027;28;20202;-73
2024/02/22 03:13:21;;;;;;;1.55;1.17;;;9.00;99.90;;;;;;5013206;28;20228;-73
2024/02/22 03:15:48;;;;;;;1.90;1.15;;;9.00;99.90;;;;;;5012975;28;20207;-73
2024/02/22 03:18:16;;;;;;;6.40;2.22;;;8.90;99.90;;;;;;5012536;28;20677;-73
2024/02/22 03:20:43;;;;;;;1.17;1.08;;;8.90;99.90;;;;;;5012855;28;20210;-72
2024/02/22 03:23:10;;;;;;;1.90;1.45;;;8.80;99.90;;;;;;5012995;28;20235;-73
2024/02/22 03:25:37;;;;;;;1.75;1.50;;;8.90;99.90;;;;;;5013453;28;20217;-73
2024/02/22 03:28:06;;;;;;;1.25;0.90;;;8.80;99.90;;;;;;5012304;28;20257;-73
2024/02/22 03:30:33;;;;;;;1.25;1.13;;;8.80;99.90;;;;;;5012982;28;20205;-73
2024/02/22 03:33:01;;;;;;;1.52;1.10;;;8.80;99.90;;;;;;5012364;28;20719;-73
2024/02/22 03:35:29;;;;;;;1.30;1.20;;;8.80;99.90;;;;;;5012890;28;20202;-73
2024/02/22 03:37:56;;;;;;;1.40;1.20;;;8.70;99.90;;;;;;5012113;28;20295;-73
2024/02/22 03:40:23;;;;;;;1.60;1.10;;;8.70;99.90;;;;;;5012688;28;20585;-73
2024/02/22 03:42:49;;;;;;;1.30;1.17;;;8.60;99.90;;;;;;5012194;28;20227;-73
2024/02/22 03:45:16;;;;;;;1.00;0.90;;;8.60;99.90;;;;;;5012688;28;20206;-73
2024/02/22 03:47:43;;;;;;;1.20;1.08;;;8.60;99.90;;;;;;5012038;28;20203;-73
2024/02/22 03:50:10;;;;;;;1.30;1.20;;;8.60;99.90;;;;;;5012327;28;20291;-73
2024/02/22 03:52:38;;;;;;;1.30;1.20;;;8.50;99.90;;;;;;5012312;28;20211;-73
2024/02/22 03:55:08;;;;;;;1.40;1.20;;;8.50;99.90;;;;;;5012020;28;20202;-72
2024/02/22 03:57:35;;;;;;;1.23;1.13;;;8.50;99.90;;;;;;5012066;28;20210;-73
2024/02/22 04:00:02;;;;;;;1.40;1.13;;;8.40;99.90;;;;;;5011983;28;20602;-73
2024/02/22 04:02:30;;;;;;;1.52;1.42;;;8.40;99.90;;;;;;5012105;28;20238;-73
2024/02/22 04:04:57;;;;;;;1.13;0.90;;;8.40;99.90;;;;;;5011841;28;20241;-72
2024/02/22 04:07:24;;;;;;;1.48;1.27;;;8.30;99.90;;;;;;5011927;28;20209;-73
2024/02/22 04:09:52;;;;;;;1.17;1.08;;;8.20;99.90;;;;;;5011579;28;20213;-73
2024/02/22 04:12:19;;;;;;;1.52;1.20;;;8.30;99.90;;;;;;5012034;28;20200;-73
2024/02/22 04:14:46;;;;;;;2.30;1.38;;;8.30;99.90;;;;;;5011723;28;20233;-73
2024/02/22 04:17:13;;;;;;;1.98;1.20;;;8.20;99.90;;;;;;5011802;28;20600;-73
2024/02/22 04:19:39;;;;;;;1.38;1.27;;;8.20;99.90;;;;;;5011726;28;20566;-73
2024/02/22 04:22:06;;;;;;;1.60;1.20;;;8.20;99.90;;;;;;5011579;28;24355;-73
2024/02/22 04:24:33;;;;;;;1.48;1.08;;;8.20;99.90;;;;;;5011826;28;20229;-73
2024/02/22 04:27:02;;;;;;;1.55;1.13;;;8.20;99.90;;;;;;5011491;28;20213;-73
2024/02/22 04:29:28;;;;;;;1.35;1.25;;;8.20;99.90;;;;;;5004067;28;20313;-73
2024/02/22 04:31:55;;;;;;;1.90;1.42;;;8.20;99.90;;;;;;5000525;28;20670;-73
2024/02/22 04:34:22;;;;;;;1.75;1.38;;;8.20;99.90;;;;;;5003102;28;20226;-73
2024/02/22 04:36:48;;;;;;;1.40;1.30;;;8.20;99.90;;;;;;5000138;28;20218;-74
2024/02/22 04:39:15;;;;;;;1.55;1.45;;;8.20;99.90;;;;;;5002252;28;20284;-73
2024/02/22 04:41:42;;;;;;;1.15;1.00;;;8.20;99.90;;;;;;4999880;28;20747;-74
2024/02/22 04:44:10;;;;;;;1.80;1.13;;;8.20;99.90;;;;;;5005873;28;20231;-74
2024/02/22 04:46:37;;;;;;;1.20;1.08;;;8.20;99.90;;;;;;5011268;28;20211;-73
2024/02/22 04:49:05;;;;;;;2.00;1.40;;;8.10;99.90;;;;;;5009833;28;20664;-73
2024/02/22 04:51:32;;;;;;;1.35;1.25;;;8.20;99.90;;;;;;5009328;28;20229;-74
2024/02/22 04:53:59;;;;;;;1.60;1.00;;;8.20;99.90;;;;;;5008507;28;20284;-74
2024/02/22 04:56:28;;;;;;;2.67;1.20;;;8.20;99.90;;;;;;5004488;28;20298;-73
2024/02/22 04:58:55;;;;;;;1.30;0.90;;;8.20;99.90;;;;;;5004202;28;20207;-74
2024/02/22 05:01:23;;;;;;;0.80;0.80;;;8.20;99.90;;;;;;5010478;28;20206;-74
2024/02/22 05:03:50;;;;;;;1.08;0.98;;;8.20;99.90;;;;;;5002338;28;20613;-75
2024/02/22 05:06:16;;;;;;;1.05;0.90;;;8.20;99.90;;;;;;5005240;28;20286;-74
2024/02/22 05:08:43;;;;;;;1.35;1.05;;;8.20;99.90;;;;;;4998397;28;20215;-74
2024/02/22 05:11:10;;;;;;;1.30;1.02;;;8.20;99.90;;;;;;5000954;28;20687;-75
2024/02/22 05:13:37;;;;;;;1.10;1.00;;;8.20;99.90;;;;;;5004269;28;20218;-74
2024/02/22 05:16:04;;;;;;;1.23;1.10;;;8.20;99.90;;;;;;5000840;28;20369;-75
2024/02/22 05:18:32;;;;;;;1.10;1.00;;;8.20;99.90;;;;;;5004191;28;20210;-75
2024/02/22 05:20:58;;;;;;;1.15;1.00;;;8.10;99.90;;;;;;5010443;28;20206;-75
2024/02/22 05:23:25;;;;;;;1.55;1.23;;;8.20;99.90;;;;;;5003548;28;20245;-73
2024/02/22 05:25:52;;;;;;;8.80;1.63;;;8.20;99.90;;;;;;5010567;28;20606;-72
2024/02/22 05:28:19;;;;;;;4.65;1.50;;;8.20;99.90;;;;;;5009912;28;20199;-76
2024/02/22 05:30:45;;;;;;;1.20;1.05;;;8.20;99.90;;;;;;5008731;28;20210;-75
2024/02/22 05:33:12;;;;;;;2.47;1.20;;;8.10;99.90;;;;;;5003798;28;20223;-75
2024/02/22 05:35:41;;;;;;;1.15;1.05;;;8.10;99.90;;;;;;5011938;28;20204;-75
2024/02/22 05:38:08;;;;;;;1.20;1.10;;;8.10;99.90;;;;;;5011549;28;20213;-75
2024/02/22 05:40:34;;;;;;;1.00;0.90;;;8.10;99.90;;;;;;5011078;28;20203;-76
2024/02/22 05:43:01;;;;;;;1.00;0.90;;;8.10;99.90;;;;;;5010480;28;20222;-76
2024/02/22 05:45:35;;;;;;;1.40;1.23;;;8.10;99.90;;;;;;5010931;28;20203;-76
2024/02/22 05:48:02;;;;;;;1.65;1.33;;;8.00;99.90;;;;;;5010072;28;20207;-76
2024/02/22 05:50:29;;;;;;;1.23;0.88;;;8.10;99.90;;;;;;5010550;28;20214;-76
2024/02/22 05:52:57;;;;;;;1.48;1.23;;;8.10;99.90;;;;;;5010441;28;20225;-76
2024/02/22 05:55:23;;;;;;;1.13;1.00;;;8.00;99.90;;;;;;5010379;28;20672;-76
2024/02/22 05:57:51;;;;;;;1.10;0.90;;;8.00;99.90;;;;;;5006613;28;20217;-76
2024/02/22 06:00:19;;;;;;;1.70;1.10;;;8.00;99.90;;;;;;5010152;28;20290;-76
2024/02/22 06:02:46;;;;;;;1.00;0.90;;;8.00;99.90;;;;;;5010371;28;20229;-76
2024/02/22 06:05:13;;;;;;;2.08;1.08;;;8.00;99.90;;;;;;5010250;28;20708;-77
2024/02/22 06:07:39;;;;;;;1.00;0.90;;;8.00;99.90;;;;;;5010157;28;20210;-76
2024/02/22 06:10:09;;;;;;;1.40;1.20;;;8.00;99.90;;;;;;5010184;28;20214;-75
2024/02/22 06:12:36;;;;;;;1.25;1.15;;;8.00;99.90;;;;;;5010607;28;20625;-75
2024/02/22 06:15:03;;;;;;;1.40;0.90;;;8.00;99.90;;;;;;5010228;28;20609;-75
2024/02/22 06:17:32;;;;;;;1.50;1.40;;;8.00;99.90;;;;;;5010393;28;20213;-76
2024/02/22 06:19:59;;;;;;;1.30;1.10;;;8.00;99.90;;;;;;5010089;28;20220;-75
2024/02/22 06:22:25;;;;;;;1.80;1.48;;;8.00;99.90;;;;;;5010237;28;20223;-75
2024/02/22 06:24:52;;;;;;;1.00;0.90;;;8.00;99.90;;;;;;5010449;28;20245;-75
2024/02/22 06:27:20;;;;;;;1.75;1.33;;;8.10;99.90;;;;;;5009870;28;20268;-75
2024/02/22 06:29:47;;;;;;;1.98;1.42;;;8.10;99.90;;;;;;5012161;28;20207;-75
2024/02/22 06:32:14;;;;;;;1.17;1.08;;;8.10;99.90;;;;;;5010085;28;20585;-75
2024/02/22 06:34:41;;;;;;;1.92;1.50;;;8.10;99.90;;;;;;5010519;28;20232;-73
2024/02/22 06:37:08;;;;;;;1.20;1.00;;;8.10;99.90;;;;;;5010154;28;20276;-73
2024/02/22 06:39:35;;;;;;;1.40;0.93;;;8.10;99.90;;;;;;5011637;28;20635;-74
2024/02/22 06:42:02;;;;;;;1.98;1.50;;;8.10;99.90;;;;;;5013358;28;20229;-72
2024/02/22 06:44:30;;;;;;;1.20;1.10;;;8.10;99.90;;;;;;5013728;28;20222;-74
2024/02/22 06:46:58;;;;;;;1.40;1.10;;;8.10;99.90;;;;;;5013914;28;20211;-74
2024/02/22 06:49:26;;;;;;;1.95;1.35;;;8.10;99.90;;;;;;5013149;28;20206;-74
2024/02/22 06:51:53;;;;;;;0.90;0.80;;;8.10;99.90;;;;;;5014176;28;20230;-74
2024/02/22 06:54:20;;;;;;;1.13;1.02;;;8.10;99.90;;;;;;5013249;28;20231;-74
2024/02/22 06:56:47;;;;;;;1.70;1.40;;;8.10;99.90;;;;;;5013584;28;20218;-74
2024/02/22 06:59:14;;;;;;;1.23;1.13;;;8.10;99.90;;;;;;5012667;28;20588;-74
2024/02/22 07:01:42;;;;;;;5.30;1.55;;;8.10;99.90;;;;;;5013335;28;20218;-74
2024/02/22 07:04:09;;;;;;;1.83;1.70;;;8.10;99.90;;;;;;5012844;28;20227;-74
2024/02/22 07:06:36;;;;;;;2.00;1.33;;;8.10;99.90;;;;;;5013350;28;20207;-74
2024/02/22 07:09:03;;;;;;;3.33;1.40;;;8.20;99.90;;;;;;5012705;28;20630;-74
2024/02/22 07:11:30;;;;;;;2.78;2.00;;;8.10;99.90;;;;;;5013315;28;20209;-74
2024/02/22 07:13:58;;;;;;;2.35;2.15;;;8.10;99.90;;;;;;5013540;28;20253;-73
2024/02/22 07:16:27;;;;;;;4.32;1.80;;;8.10;99.90;;;;;;5012751;28;20286;-74
2024/02/22 07:18:55;;;;;;;2.83;1.38;;;8.10;99.90;;;;;;5012516;28;20214;-74
2024/02/22 07:21:22;;;;;;;3.25;2.03;;;8.10;99.90;;;;;;5012834;28;20207;-74
2024/02/22 07:23:48;;;;;;;1.58;1.40;;;8.20;99.90;;;;;;5013079;28;20646;-74
2024/02/22 07:26:15;;;;;;;2.55;1.48;;;8.20;99.90;;;;;;5012779;28;20203;-73
2024/02/22 07:28:42;;;;;;;1.70;1.60;;;8.20;99.90;;;;;;5012461;28;20870;-74
2024/02/22 07:31:09;;;;;;;6.65;2.00;;;8.20;99.90;;;;;;5012608;28;20566;-74
2024/02/22 07:33:35;;;;;;;2.10;1.92;;;8.20;99.90;;;;;;5012812;28;20218;-74
2024/02/22 07:36:04;;;;;;;2.13;1.55;;;8.30;99.90;;;;;;5012708;28;20214;-74
2024/02/22 07:38:31;;;;;;;1.77;1.65;;;8.20;99.90;;;;;;5012161;28;20241;-74
2024/02/22 07:41:02;;;;;;;1.70;1.45;;;8.30;99.90;;;;;;5012886;28;20229;-74
2024/02/22 07:43:28;;;;;;;2.55;1.98;;;8.30;99.90;;;;;;5011989;28;20329;-74
2024/02/22 07:45:55;;;;;;;1.92;1.45;;;8.30;99.90;;;;;;5012610;28;20210;-74
2024/02/22 07:48:22;;;;;;;1.75;1.55;;;8.30;99.90;;;;;;5011620;28;20587;-74
2024/02/22 07:50:48;;;;;;;2.22;1.70;;;8.30;99.90;;;;;;5011733;28;20221;-74
2024/02/22 07:53:17;;;;;;;2.10;1.65;;;8.30;99.90;;;;;;5012005;28;20227;-74
2024/02/22 07:55:43;;;;;;;2.67;1.40;;;8.30;99.90;;;;;;5012804;28;20285;-74
2024/02/22 07:58:10;;;;;;;1.17;1.08;;;8.30;99.90;;;;;;5011487;28;20202;-74
2024/02/22 08:00:37;;;;;;;1.40;1.10;;;8.40;99.90;;;;;;5012421;28;20575;-74
2024/02/22 08:03:04;;;;;;;1.20;1.10;;;8.30;99.90;;;;;;5011803;28;20249;-74
2024/02/22 08:05:31;;;;;;;1.80;1.70;;;8.40;99.90;;;;;;5010823;28;20211;-74
2024/02/22 08:07:58;;;;;;;1.23;1.13;;;8.40;99.90;;;;;;5007913;28;20217;-73
2024/02/22 08:10:26;;;;;;;1.30;0.90;;;8.40;99.90;;;;;;5011446;28;20569;-74
2024/02/22 08:12:53;;;;;;;1.30;1.17;;;8.40;99.90;;;;;;5012203;28;20644;-73
2024/02/22 08:15:20;;;;;;;2.15;0.98;;;8.40;99.90;;;;;;5011852;28;20297;-74
2024/02/22 08:17:47;;;;;;;1.10;0.80;;;8.40;99.90;;;;;;5011748;28;20202;-74
2024/02/22 08:20:14;;;;;;;1.20;1.10;;;8.40;99.90;;;;;;5011774;28;20217;-74
2024/02/22 08:22:41;;;;;;;1.35;1.25;;;8.40;99.90;;;;;;5011980;28;20218;-74
2024/02/22 08:25:09;;;;;;;1.60;0.88;;;8.40;99.90;;;;;;5012007;28;20203;-74
2024/02/22 08:27:37;;;;;;;1.70;1.00;;;8.50;99.90;;;;;;5005170;28;20203;-74
2024/02/22 08:30:04;;;;;;;0.80;0.70;;;8.50;99.90;;;;;;5011899;28;20229;-74
2024/02/22 08:32:31;;;;;;;0.90;0.70;;;8.50;99.90;;;;;;5011686;28;20217;-74
2024/02/22 08:34:58;;;;;;;0.80;0.80;;;8.50;99.90;;;;;;5011825;28;20230;-74
2024/02/22 08:37:25;;;;;;;1.17;0.90;;;8.50;99.90;;;;;;5011259;28;20203;-74
2024/02/22 08:39:52;;;;;;;1.05;0.95;;;8.60;99.90;;;;;;5011493;28;20210;-74
2024/02/22 08:42:20;;;;;;;1.00;0.90;;;8.60;99.90;;;;;;5011350;28;20595;-74
2024/02/22 08:44:49;;;;;;;2.28;0.75;;;8.60;99.90;;;;;;5011703;28;20607;-76
2024/02/22 08:47:16;;;;;;;1.00;0.90;;;8.70;99.90;;;;;;5011595;28;20203;-73
2024/02/22 08:49:45;;;;;;;0.90;0.80;;;8.70;99.90;;;;;;5011318;28;20624;-74
2024/02/22 08:52:12;;;;;;;1.00;0.93;;;8.80;99.90;;;;;;5011347;28;20629;-74
2024/02/22 08:54:40;;;;;;;0.73;0.70;;;8.90;99.90;;;;;;5004868;28;20244;-73
2024/02/22 08:57:06;;;;;;;5.22;0.90;;;8.90;99.90;;;;;;5011173;28;20236;-74
2024/02/22 08:59:33;;;;;;;0.98;0.90;;;9.00;99.90;;;;;;5010477;28;20690;-74
2024/02/22 09:02:01;;;;;;;0.85;0.70;;;8.90;99.90;;;;;;5010674;28;20214;-74
2024/02/22 09:04:28;;;;;;;1.45;0.95;;;8.90;99.90;;;;;;5009274;28;20236;-73
2024/02/22 09:06:54;;;;;;;0.80;0.80;;;9.00;99.90;;;;;;5011172;28;20236;-74
2024/02/22 09:09:21;;;;;;;0.77;0.70;;;9.00;99.90;;;;;;5011343;28;20213;-74
2024/02/22 09:11:48;;;;;;;0.70;0.70;;;9.00;99.90;;;;;;5011482;28;20214;-74
2024/02/22 09:14:15;;;;;;;0.80;0.80;;;9.00;99.90;;;;;;5010899;28;20611;-73
2024/02/22 09:16:42;;;;;;;0.85;0.77;;;9.00;99.90;;;;;;5005080;28;20206;-73
2024/02/22 09:19:11;;;;;;;0.70;0.70;;;9.10;99.90;;;;;;5010778;28;20207;-74
2024/02/22 09:21:37;;;;;;;0.90;0.77;;;9.10;99.90;;;;;;5010811;28;20362;-74
2024/02/22 09:24:05;;;;;;;0.90;0.70;;;9.10;99.90;;;;;;5010731;28;20309;-73
2024/02/22 09:26:31;;;;;;;0.75;0.68;;;9.10;99.90;;;;;;5010860;28;20207;-74
2024/02/22 09:28:58;;;;;;;0.80;0.70;;;9.10;99.90;;;;;;5010496;28;20301;-74
2024/02/22 09:31:25;;;;;;;0.70;0.60;;;9.10;99.90;;;;;;5010625;28;20609;-74
2024/02/22 09:33:51;;;;;;;0.80;0.70;;;9.10;99.90;;;;;;5010855;28;20228;-75
2024/02/22 09:36:19;;;;;;;0.80;0.70;;;9.10;99.90;;;;;;5010553;28;20218;-75
2024/02/22 09:38:46;;;;;;;0.80;0.70;;;9.10;99.90;;;;;;5010490;28;20211;-76
2024/02/22 09:41:13;;;;;;;1.60;0.70;;;9.10;99.90;;;;;;5010832;28;20210;-73
2024/02/22 09:43:41;;;;;;;1.10;0.80;;;9.10;99.90;;;;;;5010321;28;20233;-75
2024/02/22 09:46:08;;;;;;;2.90;1.00;;;9.10;99.90;;;;;;5010947;28;20216;-73
2024/02/22 09:48:34;;;;;;;0.70;0.60;;;9.20;99.90;;;;;;5009844;28;20207;-73
2024/02/22 09:51:03;;;;;;;0.70;0.70;;;9.20;99.90;;;;;;5010711;28;20215;-75
2024/02/22 09:53:32;;;;;;;1.23;0.80;;;9.30;99.90;;;;;;5010555;28;20226;-75
2024/02/22 09:55:59;;;;;;;0.70;0.60;;;9.30;99.90;;;;;;5010886;28;20219;-73
2024/02/22 09:58:26;;;;;;;1.90;0.70;;;9.30;99.90;;;;;;5007641;28;20217;-74
2024/02/22 10:00:53;;;;;;;0.70;0.60;;;9.40;99.90;;;;;;5010748;28;20209;-74
2024/02/22 10:03:29;;;;;;;0.80;0.70;;;9.50;99.90;;;;;;5010566;28;20228;-74
2024/02/22 10:05:56;;;;;;;0.80;0.70;;;9.60;99.90;;;;;;5010828;28;20218;-74
2024/02/22 10:08:24;;;;;;;0.70;0.60;;;9.70;99.90;;;;;;5009923;28;20216;-74
2024/02/22 10:10:55;;;;;;;0.70;0.60;;;9.70;99.90;;;;;;5010653;28;20214;-74
2024/02/22 10:13:22;;;;;;;0.80;0.70;;;9.80;99.90;;;;;;5012137;28;20355;-74
2024/02/22 10:15:49;;;;;;;0.80;0.70;;;9.80;99.90;;;;;;5014445;28;20207;-74
2024/02/22 10:18:25;;;;;;;0.80;0.70;;;9.80;99.90;;;;;;5013662;28;20680;-74
2024/02/22 10:20:51;;;;;;;0.70;0.60;;;9.80;99.90;;;;;;5014702;28;20587;-73
2024/02/22 10:23:20;;;;;;;0.80;0.70;;;9.90;99.90;;;;;;5013950;28;20223;-75
2024/02/22 10:25:47;;;;;;;0.95;0.80;;;9.90;99.90;;;;;;5014122;28;20217;-74
2024/02/22 10:28:16;;;;;;;1.35;0.75;;;9.90;99.90;;;;;;5013666;28;20212;-74
2024/02/22 10:30:44;;;;;;;0.70;0.60;;;9.90;99.90;;;;;;5013899;28;20207;-74
2024/02/22 10:33:12;;;;;;;0.80;0.70;;;9.80;99.90;;;;;;5014002;28;20228;-74
2024/02/22 10:35:40;;;;;;;1.33;0.85;;;9.80;99.90;;;;;;5013593;28;20212;-74
2024/02/22 10:38:09;;;;;;;0.80;0.77;;;9.70;99.90;;;;;;5013490;28;20228;-74
2024/02/22 10:40:36;;;;;;;0.80;0.60;;;9.70;99.90;;;;;;5013672;28;20636;-74
2024/02/22 10:43:05;;;;;;;0.80;0.70;;;9.70;99.90;;;;;;5013800;28;20706;-74
2024/02/22 10:45:35;;;;;;;0.90;0.70;;;9.70;99.90;;;;;;5013598;28;20211;-74
2024/02/22 10:48:07;;;;;;;0.70;0.60;;;9.70;99.90;;;;;;5014619;28;20208;-74
2024/02/22 10:50:36;;;;;;;0.77;0.68;;;9.70;99.90;;;;;;5007401;28;20550;-74
2024/02/22 10:53:26;;;;;;;0.70;0.60;;;9.70;99.90;;;;;;5059487;22;20231;-74
2024/02/22 10:56:20;;;;;;;0.70;0.70;;;9.80;99.90;;;;;;5021332;28;20212;-75
2024/02/22 10:59:12;;;;;;;0.95;0.75;;;9.70;99.90;;;;;;5022859;28;20223;-74
2024/02/22 11:01:45;;;;;;;0.70;0.60;;;9.60;99.90;;;;;;5019117;28;20214;-74
2024/02/22 11:04:15;;;;;;;0.70;0.60;;;9.60;99.90;;;;;;5014352;28;20310;-76
2024/02/22 11:06:48;;;;;;;0.70;0.70;;;9.60;99.90;;;;;;4993345;28;20216;-75
2024/02/22 11:09:21;;;;;;;0.80;0.70;;;9.60;99.90;;;;;;4997010;28;20738;-75
2024/02/22 11:11:50;;;;;;;0.90;0.80;;;9.50;99.90;;;;;;5000600;28;20258;-75
2024/02/22 11:17:21;;;;;;;0.80;0.70;;;9.40;99.90;;;;;;5000745;28;20289;-75
2024/02/22 11:19:55;;;;;;;0.90;0.70;;;9.40;99.90;;;;;;4999834;28;20242;-76
2024/02/22 11:22:22;;;;;;;0.70;0.60;;;9.40;99.90;;;;;;5001670;28;20213;-74
2024/02/22 11:25:00;;;;;;;0.80;0.80;;;9.30;99.90;;;;;;4999697;28;20239;-74
2024/02/22 11:27:30;;;;;;;0.98;0.80;;;9.30;99.90;;;;;;4994426;28;20294;-74
2024/02/22 11:29:59;;;;;;;0.80;0.70;;;9.40;99.90;;;;;;5000165;28;20211;-75
2024/02/22 11:32:32;;;;;;;0.70;0.70;;;9.40;99.90;;;;;;4990376;28;20231;-75
2024/02/22 11:34:59;;;;;;;1.65;0.70;;;9.40;99.90;;;;;;5000774;28;20257;-75
2024/02/22 11:37:32;;;;;;;1.55;0.80;;;9.40;99.90;;;;;;4994666;28;20208;-75
2024/02/22 11:40:04;;;;;;;0.95;0.85;;;9.40;99.90;;;;;;4993295;28;20206;-74
2024/02/22 11:42:31;;;;;;;1.00;0.90;;;9.30;99.90;;;;;;4990965;28;20634;-74
2024/02/22 11:45:02;;;;;;;0.70;0.60;;;9.30;99.90;;;;;;4992062;28;20283;-75
2024/02/22 11:47:36;;;;;;;1.33;0.90;;;9.30;99.90;;;;;;4995013;28;20568;-75
2024/02/22 11:50:03;;;;;;;1.70;0.80;;;9.30;99.90;;;;;;4996352;28;20472;-75
2024/02/22 11:52:31;;;;;;;1.02;0.80;;;9.30;99.90;;;;;;5002354;28;20201;-75
2024/02/22 11:54:57;;;;;;;0.80;0.80;;;9.40;99.90;;;;;;4995580;28;20225;-75
2024/02/22 11:57:24;;;;;;;0.70;0.60;;;9.40;99.90;;;;;;5003235;28;20219;-75
2024/02/22 11:59:51;;;;;;;0.90;0.90;;;9.60;99.90;;;;;;4995422;28;20217;-75
2024/02/22 12:02:19;;;;;;;0.80;0.70;;;9.70;99.90;;;;;;5003472;28;20294;-75
2024/02/22 12:04:50;;;;;;;0.80;0.70;;;9.90;99.90;;;;;;4999870;28;20235;-75
2024/02/22 12:07:17;;;;;;;0.82;0.70;;;10.30;99.90;;;;;;5003283;28;20309;-75
2024/02/22 12:09:44;;;;;;;0.80;0.70;;;10.70;99.90;;;;;;4998606;28;20304;-75
2024/02/22 12:12:11;;;;;;;2.15;0.90;;;11.20;99.90;;;;;;4999888;28;20210;-75
2024/02/22 12:14:38;;;;;;;1.10;0.80;;;11.50;99.90;;;;;;4997945;28;20232;-75
2024/02/22 12:17:08;;;;;;;1.00;0.90;;;11.50;99.90;;;;;;5001550;28;20207;-75
2024/02/22 12:19:36;;;;;;;0.70;0.60;;;11.20;99.90;;;;;;4994718;28;20221;-75
2024/02/22 12:22:04;;;;;;;0.80;0.70;;;11.00;99.90;;;;;;5001172;28;20214;-75
2024/02/22 12:24:34;;;;;;;0.80;0.80;;;10.70;99.90;;;;;;4999125;28;20698;-75
2024/02/22 12:27:02;;;;;;;0.90;0.70;;;10.50;99.90;;;;;;5001804;28;20676;-75
2024/02/22 12:29:30;;;;;;;0.80;0.70;;;10.40;99.90;;;;;;5003818;28;20268;-75
2024/02/22 12:32:04;;;;;;;1.00;0.80;;;10.20;99.90;;;;;;5004628;28;20205;-75
2024/02/22 12:34:32;;;;;;;0.80;0.70;;;10.10;99.90;;;;;;4992760;28;20222;-75
2024/02/22 12:36:58;;;;;;;1.25;0.70;;;10.10;99.90;;;;;;4999611;28;20585;-75
2024/02/22 12:39:26;;;;;;;3.53;0.75;;;10.00;99.90;;;;;;5003226;28;20213;-75
2024/02/22 12:41:53;;;;;;;0.70;0.60;;;10.10;99.90;;;;;;4999430;28;20208;-75
2024/02/22 12:44:20;;;;;;;0.70;0.63;;;10.10;99.90;;;;;;4998432;28;20228;-75
2024/02/22 12:46:48;;;;;;;1.83;0.70;;;10.00;99.90;;;;;;5000895;28;20209;-75
2024/02/22 12:49:14;;;;;;;1.05;0.75;;;10.00;99.90;;;;;;4995792;28;20680;-75
2024/02/22 12:51:43;;;;;;;0.70;0.60;;;10.00;99.90;;;;;;5002339;28;20205;-74
2024/02/22 12:54:10;;;;;;;0.88;0.70;;;10.00;99.90;;;;;;5002252;28;20221;-74
2024/02/22 12:56:38;;;;;;;0.90;0.80;;;10.00;99.90;;;;;;5000420;28;20212;-73
2024/02/22 12:59:07;;;;;;;0.90;0.70;;;10.00;99.90;;;;;;4999466;28;20199;-74
2024/02/22 13:01:36;;;;;;;1.10;0.95;;;10.00;99.90;;;;;;5000699;28;20235;-75